Time;durP1;ratioP1;P1;durP2;ratioP2;P2;SDS_P1;SDS_P2;PMS_P1;PMS_P2;Temp;Humidity;BMP_temperature;BMP_pressure;BME280_temperature;BME280_humidity;BME280_pressure;Samples;Min_cycle;Max_cycle;Signal;HPM_P1;HPM_P2
2023/04/14 00:00:18;;;;;;;5.07;2.30;;;;;;;;;;5054236;28;20025;-76
2023/04/14 00:02:43;;;;;;;4.82;2.33;;;;;;;;;;5055414;28;20273;-76
2023/04/14 00:05:09;;;;;;;6.93;2.47;;;;;;;;;;5055460;28;20025;-76
2023/04/14 00:07:34;;;;;;;5.68;2.25;;;;;;;;;;5055407;28;20025;-75
2023/04/14 00:09:59;;;;;;;7.10;2.40;;;;;;;;;;5055373;28;20106;-75
2023/04/14 00:12:24;;;;;;;5.15;2.67;;;;;;;;;;5055222;28;20412;-76
2023/04/14 00:14:49;;;;;;;6.57;2.50;;;;;;;;;;5055319;28;20055;-76
2023/04/14 00:17:15;;;;;;;6.38;2.47;;;;;;;;;;5053988;28;20021;-75
2023/04/14 00:19:40;;;;;;;5.53;2.20;;;;;;;;;;5055107;28;20147;-77
2023/04/14 00:22:05;;;;;;;6.40;2.40;;;;;;;;;;5055056;28;20305;-75
2023/04/14 00:24:31;;;;;;;4.90;2.25;;;;;;;;;;5053820;28;20343;-75
2023/04/14 00:26:56;;;;;;;8.55;2.35;;;;;;;;;;5055056;28;20503;-76
2023/04/14 00:29:21;;;;;;;5.15;2.55;;;;;;;;;;5055191;28;20391;-76
2023/04/14 00:31:47;;;;;;;8.75;2.60;;;;;;;;;;5055269;28;20043;-76
2023/04/14 00:34:12;;;;;;;6.57;2.75;;;;;;;;;;5059967;28;20052;-76
2023/04/14 00:36:37;;;;;;;5.83;2.80;;;;;;;;;;5060176;28;20023;-76
2023/04/14 00:39:03;;;;;;;5.65;2.83;;;;;;;;;;5059040;28;20793;-76
2023/04/14 00:41:33;;;;;;;6.90;3.15;;;;;;;;;;5059312;28;20115;-77
2023/04/14 00:44:00;;;;;;;5.68;2.63;;;;;;;;;;5059455;28;20507;-76
2023/04/14 00:46:26;;;;;;;6.63;2.72;;;;;;;;;;5060947;28;20021;-76
2023/04/14 00:48:51;;;;;;;9.90;2.92;;;;;;;;;;5057143;28;20021;-75
2023/04/14 00:51:17;;;;;;;5.95;2.83;;;;;;;;;;5054782;28;20037;-76
2023/04/14 00:53:42;;;;;;;6.50;3.00;;;;;;;;;;5054934;28;20075;-76
2023/04/14 00:56:07;;;;;;;8.73;3.60;;;;;;;;;;5054412;28;20032;-76
2023/04/14 00:58:34;;;;;;;5.97;3.10;;;;;;;;;;5053214;28;20031;-76
2023/04/14 01:00:59;;;;;;;5.63;2.97;;;;;;;;;;5054528;28;20024;-76
2023/04/14 01:03:25;;;;;;;7.20;2.83;;;;;;;;;;5054289;28;20384;-76
2023/04/14 01:05:50;;;;;;;5.65;2.95;;;;;;;;;;5054476;28;20033;-76
2023/04/14 01:08:17;;;;;;;6.32;3.10;;;;;;;;;;5054602;28;20029;-76
2023/04/14 01:11:00;;;;;;;6.03;2.58;;;;;;;;;;5054815;28;20021;-76
2023/04/14 01:13:34;;;;;;;8.18;2.92;;;;;;;;;;5053156;28;20025;-76
2023/04/14 01:16:01;;;;;;;;;;;;;;;;;;5054767;28;20484;-76
2023/04/14 01:18:55;;;;;;;4.63;2.35;;;;;;;;;;5052831;28;20026;-76
2023/04/14 01:21:31;;;;;;;7.10;2.80;;;;;;;;;;5054190;28;20033;-76
2023/04/14 01:24:24;;;;;;;4.78;2.20;;;;;;;;;;5054120;28;20029;-76
2023/04/14 01:27:01;;;;;;;5.45;2.70;;;;;;;;;;5054995;28;20119;-76
2023/04/14 01:29:43;;;;;;;4.10;2.33;;;;;;;;;;5054258;28;20485;-76
2023/04/14 01:32:13;;;;;;;5.03;2.00;;;;;;;;;;5053596;28;20533;-77
2023/04/14 01:34:56;;;;;;;4.90;2.10;;;;;;;;;;5053629;28;20044;-77
2023/04/14 01:37:34;;;;;;;5.68;2.13;;;;;;;;;;5053413;28;20017;-77
2023/04/14 01:40:04;;;;;;;5.00;2.00;;;;;;;;;;5051871;28;20059;-77
2023/04/14 01:42:34;;;;;;;6.15;2.10;;;;;;;;;;5053547;28;20021;-76
2023/04/14 01:45:07;;;;;;;3.22;1.90;;;;;;;;;;5053420;28;20472;-76
2023/04/14 01:47:34;;;;;;;6.68;1.80;;;;;;;;;;5052289;28;20040;-76
2023/04/14 01:50:00;;;;;;;4.75;1.90;;;;;;;;;;5053299;28;20036;-76
2023/04/14 01:52:26;;;;;;;4.40;2.15;;;;;;;;;;5053544;28;20025;-76
2023/04/14 01:54:54;;;;;;;8.65;1.80;;;;;;;;;;5053639;28;20510;-76
2023/04/14 01:57:21;;;;;;;4.95;1.73;;;;;;;;;;5052117;28;20029;-76
2023/04/14 01:59:48;;;;;;;6.85;1.88;;;;;;;;;;5053607;28;20043;-76
2023/04/14 02:02:16;;;;;;;3.28;1.75;;;;;;;;;;5051820;28;20468;-77
2023/04/14 02:04:42;;;;;;;4.03;1.80;;;;;;;;;;5053253;28;20029;-76
2023/04/14 02:07:09;;;;;;;4.78;1.90;;;;;;;;;;5052532;28;20108;-76
2023/04/14 02:09:36;;;;;;;3.80;2.20;;;;;;;;;;5052120;28;20023;-76
2023/04/14 02:12:03;;;;;;;5.13;2.03;;;;;;;;;;5053380;28;20033;-76
2023/04/14 02:14:30;;;;;;;3.38;1.90;;;;;;;;;;5052009;28;20021;-76
2023/04/14 02:16:57;;;;;;;2.97;1.85;;;;;;;;;;5053369;28;20055;-75
2023/04/14 02:19:24;;;;;;;5.53;1.92;;;;;;;;;;5053149;28;20025;-75
2023/04/14 02:21:51;;;;;;;6.18;2.30;;;;;;;;;;5053589;28;20025;-76
2023/04/14 02:24:16;;;;;;;3.63;2.00;;;;;;;;;;5053264;28;20024;-76
2023/04/14 02:26:52;;;;;;;4.00;1.77;;;;;;;;;;5051994;28;20024;-75
2023/04/14 02:29:21;;;;;;;4.25;2.00;;;;;;;;;;5053250;28;20021;-75
2023/04/14 02:31:54;;;;;;;9.40;2.25;;;;;;;;;;5051463;28;20120;-75
2023/04/14 02:34:24;;;;;;;6.45;2.20;;;;;;;;;;5053141;28;20476;-74
2023/04/14 02:36:55;;;;;;;3.75;2.30;;;;;;;;;;5052971;28;20033;-75
2023/04/14 02:39:43;;;;;;;5.22;2.00;;;;;;;;;;5052834;28;20071;-73
2023/04/14 02:42:16;;;;;;;4.82;2.00;;;;;;;;;;5052788;28;20021;-75
2023/04/14 02:44:48;;;;;;;7.17;2.00;;;;;;;;;;5052833;28;20124;-74
2023/04/14 02:47:22;;;;;;;3.08;1.70;;;;;;;;;;5051465;28;20036;-74
2023/04/14 02:49:51;;;;;;;5.70;2.20;;;;;;;;;;5052175;28;20020;-74
2023/04/14 02:52:18;;;;;;;6.22;2.20;;;;;;;;;;5053079;28;20068;-74
2023/04/14 02:54:46;;;;;;;6.15;2.33;;;;;;;;;;5052729;28;20033;-75
2023/04/14 02:57:12;;;;;;;6.07;2.28;;;;;;;;;;5052891;28;20075;-75
2023/04/14 02:59:39;;;;;;;7.68;2.78;;;;;;;;;;5051259;28;20025;-75
2023/04/14 03:02:05;;;;;;;7.07;2.55;;;;;;;;;;5052539;28;20447;-74
2023/04/14 03:04:35;;;;;;;5.93;2.50;;;;;;;;;;5052662;28;20075;-74
2023/04/14 03:07:01;;;;;;;7.10;2.75;;;;;;;;;;5053009;28;20078;-74
2023/04/14 03:09:28;;;;;;;5.97;2.80;;;;;;;;;;5052656;28;20021;-74
2023/04/14 03:11:55;;;;;;;5.22;2.58;;;;;;;;;;5052321;28;20029;-74
2023/04/14 03:14:20;;;;;;;6.80;3.03;;;;;;;;;;5052877;28;20029;-73
2023/04/14 03:16:47;;;;;;;5.97;2.88;;;;;;;;;;5052589;28;20431;-74
2023/04/14 03:19:13;;;;;;;7.82;3.22;;;;;;;;;;5054614;28;20384;-74
2023/04/14 03:21:39;;;;;;;3.35;2.50;;;;;;;;;;5056257;28;20484;-73
2023/04/14 03:24:05;;;;;;;5.95;3.08;;;;;;;;;;5056610;28;20081;-75
2023/04/14 03:26:33;;;;;;;5.03;2.42;;;;;;;;;;5056201;28;20029;-73
2023/04/14 03:29:01;;;;;;;7.50;3.10;;;;;;;;;;5056185;28;20143;-74
2023/04/14 03:31:31;;;;;;;4.63;2.72;;;;;;;;;;5056200;28;20029;-74
2023/04/14 03:33:58;;;;;;;4.72;2.83;;;;;;;;;;5054790;28;20032;-75
2023/04/14 03:36:25;;;;;;;5.93;2.80;;;;;;;;;;5056184;28;20025;-74
2023/04/14 03:38:54;;;;;;;6.53;3.47;;;;;;;;;;5055977;28;20036;-75
2023/04/14 03:41:21;;;;;;;7.65;2.97;;;;;;;;;;5056197;28;20439;-74
2023/04/14 03:43:53;;;;;;;6.28;2.25;;;;;;;;;;5054499;28;20029;-75
2023/04/14 03:46:18;;;;;;;5.53;2.83;;;;;;;;;;5054653;28;20037;-74
2023/04/14 03:48:46;;;;;;;4.75;2.63;;;;;;;;;;5055585;28;20129;-75
2023/04/14 03:51:14;;;;;;;7.53;2.47;;;;;;;;;;5055417;28;20025;-76
2023/04/14 03:53:43;;;;;;;4.80;2.78;;;;;;;;;;5055605;28;20025;-74
2023/04/14 03:56:12;;;;;;;8.05;2.90;;;;;;;;;;5054335;28;20056;-75
2023/04/14 03:58:38;;;;;;;7.68;3.10;;;;;;;;;;5056067;28;20071;-74
2023/04/14 04:01:04;;;;;;;6.07;2.67;;;;;;;;;;5055663;28;20499;-75
2023/04/14 04:03:32;;;;;;;6.35;3.20;;;;;;;;;;5054273;28;20025;-76
2023/04/14 04:05:58;;;;;;;4.57;2.95;;;;;;;;;;5055652;28;20048;-75
2023/04/14 04:08:23;;;;;;;7.28;2.90;;;;;;;;;;5055680;28;20068;-74
2023/04/14 04:10:50;;;;;;;4.47;2.95;;;;;;;;;;5055964;28;20024;-74
2023/04/14 04:13:16;;;;;;;5.57;3.30;;;;;;;;;;5055233;28;20029;-75
2023/04/14 04:15:44;;;;;;;4.88;3.10;;;;;;;;;;5055288;28;20037;-74
2023/04/14 04:18:11;;;;;;;7.93;3.95;;;;;;;;;;5055484;28;20025;-74
2023/04/14 04:20:37;;;;;;;6.28;3.50;;;;;;;;;;5055373;28;20025;-74
2023/04/14 04:23:05;;;;;;;7.68;3.35;;;;;;;;;;5055200;28;20043;-74
2023/04/14 04:25:32;;;;;;;6.22;3.65;;;;;;;;;;5055570;28;20039;-74
2023/04/14 04:27:59;;;;;;;8.23;3.60;;;;;;;;;;5055215;28;20076;-74
2023/04/14 04:30:27;;;;;;;9.00;3.40;;;;;;;;;;5054874;28;20029;-74
2023/04/14 04:32:52;;;;;;;9.38;3.42;;;;;;;;;;5055014;28;20029;-74
2023/04/14 04:35:18;;;;;;;6.47;3.50;;;;;;;;;;5055131;28;20036;-73
2023/04/14 04:37:45;;;;;;;8.75;3.17;;;;;;;;;;5054987;28;20103;-74
2023/04/14 04:40:10;;;;;;;8.38;3.13;;;;;;;;;;5054796;28;20021;-74
2023/04/14 04:42:40;;;;;;;8.13;3.47;;;;;;;;;;5054709;28;20025;-74
2023/04/14 04:45:06;;;;;;;6.63;3.67;;;;;;;;;;5054987;28;20092;-73
2023/04/14 04:47:31;;;;;;;10.10;3.80;;;;;;;;;;5054773;28;20028;-73
2023/04/14 04:49:56;;;;;;;7.03;3.25;;;;;;;;;;5054488;28;20017;-73
2023/04/14 04:52:22;;;;;;;7.60;3.80;;;;;;;;;;5054557;28;20057;-75
2023/04/14 04:54:51;;;;;;;5.80;3.80;;;;;;;;;;5054739;28;20297;-74
2023/04/14 04:57:16;;;;;;;9.45;3.63;;;;;;;;;;5053422;28;20025;-74
2023/04/14 04:59:41;;;;;;;7.68;3.83;;;;;;;;;;5054276;28;20036;-73
2023/04/14 05:02:06;;;;;;;8.00;3.90;;;;;;;;;;5054289;28;20017;-74
2023/04/14 05:04:32;;;;;;;7.30;4.20;;;;;;;;;;5054291;28;20268;-74
2023/04/14 05:06:57;;;;;;;11.60;3.95;;;;;;;;;;5054224;28;20254;-74
2023/04/14 05:09:22;;;;;;;6.10;3.83;;;;;;;;;;5054299;28;20025;-74
2023/04/14 05:11:47;;;;;;;8.17;4.00;;;;;;;;;;5054132;28;20265;-74
2023/04/14 05:14:13;;;;;;;13.18;4.15;;;;;;;;;;5054498;28;20324;-74
2023/04/14 05:16:38;;;;;;;9.57;4.00;;;;;;;;;;5054314;28;20108;-74
2023/04/14 05:19:03;;;;;;;7.93;4.60;;;;;;;;;;5054314;28;20028;-74
2023/04/14 05:21:28;;;;;;;7.80;4.50;;;;;;;;;;5054058;28;20078;-74
2023/04/14 05:23:54;;;;;;;7.60;4.60;;;;;;;;;;5054010;28;20253;-74
2023/04/14 05:26:20;;;;;;;6.60;4.53;;;;;;;;;;5054099;28;20304;-74
2023/04/14 05:28:46;;;;;;;8.30;4.82;;;;;;;;;;5053950;28;20254;-75
2023/04/14 05:31:11;;;;;;;9.77;4.72;;;;;;;;;;5053862;28;20047;-75
2023/04/14 05:33:37;;;;;;;8.43;4.80;;;;;;;;;;5052465;28;20029;-74
2023/04/14 05:36:02;;;;;;;9.88;5.05;;;;;;;;;;5054437;28;20087;-75
2023/04/14 05:38:28;;;;;;;6.78;4.72;;;;;;;;;;5053769;28;20028;-74
2023/04/14 05:40:53;;;;;;;11.65;5.10;;;;;;;;;;5053695;28;20480;-75
2023/04/14 05:43:18;;;;;;;9.60;4.70;;;;;;;;;;5052546;28;20119;-75
2023/04/14 05:45:47;;;;;;;9.50;5.18;;;;;;;;;;5053843;28;20031;-73
2023/04/14 05:48:13;;;;;;;8.70;5.60;;;;;;;;;;5053583;28;20028;-74
2023/04/14 05:50:39;;;;;;;10.75;5.05;;;;;;;;;;5053422;28;20476;-75
2023/04/14 05:53:05;;;;;;;8.15;5.28;;;;;;;;;;5053224;28;20033;-74
2023/04/14 05:55:31;;;;;;;9.43;5.15;;;;;;;;;;5053899;28;20431;-74
2023/04/14 05:57:57;;;;;;;10.15;5.50;;;;;;;;;;5053321;28;20016;-74
2023/04/14 06:00:23;;;;;;;7.90;4.97;;;;;;;;;;5051901;28;20077;-74
2023/04/14 06:02:50;;;;;;;8.55;4.70;;;;;;;;;;5053212;28;20395;-73
2023/04/14 06:05:15;;;;;;;11.45;4.88;;;;;;;;;;5053703;28;20028;-74
2023/04/14 06:07:40;;;;;;;8.85;4.20;;;;;;;;;;5053175;28;20033;-75
2023/04/14 06:10:06;;;;;;;7.95;4.70;;;;;;;;;;5053346;28;20023;-74
2023/04/14 06:12:32;;;;;;;7.57;4.57;;;;;;;;;;5052720;28;20037;-74
2023/04/14 06:14:57;;;;;;;10.00;5.18;;;;;;;;;;5053016;28;20044;-74
2023/04/14 06:17:22;;;;;;;10.27;5.43;;;;;;;;;;5053427;28;20029;-74
2023/04/14 06:19:48;;;;;;;9.73;4.90;;;;;;;;;;5052916;28;20289;-74
2023/04/14 06:22:17;;;;;;;10.88;5.05;;;;;;;;;;5052910;28;20257;-74
2023/04/14 06:24:43;;;;;;;10.68;5.53;;;;;;;;;;5051706;28;20163;-74
2023/04/14 06:27:08;;;;;;;8.27;4.93;;;;;;;;;;5053032;28;20472;-75
2023/04/14 06:29:34;;;;;;;9.75;5.82;;;;;;;;;;5051706;28;20053;-74
2023/04/14 06:31:59;;;;;;;16.63;7.35;;;;;;;;;;5051432;28;20037;-74
2023/04/14 06:34:24;;;;;;;17.48;7.97;;;;;;;;;;5053450;28;20126;-74
2023/04/14 06:36:50;;;;;;;20.27;8.15;;;;;;;;;;5052825;28;20442;-74
2023/04/14 06:39:15;;;;;;;11.15;5.90;;;;;;;;;;5053062;28;20480;-74
2023/04/14 06:41:40;;;;;;;11.93;5.80;;;;;;;;;;5052564;28;20036;-74
2023/04/14 06:44:06;;;;;;;7.33;4.90;;;;;;;;;;5053351;28;20258;-74
2023/04/14 06:46:34;;;;;;;9.38;5.50;;;;;;;;;;5052639;28;20253;-73
2023/04/14 06:48:59;;;;;;;10.27;5.50;;;;;;;;;;5052734;28;20013;-74
2023/04/14 06:51:25;;;;;;;8.05;4.72;;;;;;;;;;5052438;28;20028;-74
2023/04/14 06:53:51;;;;;;;8.68;4.70;;;;;;;;;;5054365;28;20185;-74
2023/04/14 06:56:16;;;;;;;9.43;5.00;;;;;;;;;;5056869;28;20472;-73
2023/04/14 06:58:41;;;;;;;9.95;5.50;;;;;;;;;;5056485;28;20680;-72
2023/04/14 07:01:06;;;;;;;7.00;4.80;;;;;;;;;;5056714;28;20100;-74
2023/04/14 07:03:33;;;;;;;9.40;4.73;;;;;;;;;;5056412;28;20025;-73
2023/04/14 07:06:06;;;;;;;8.38;4.75;;;;;;;;;;5056478;28;20285;-73
2023/04/14 07:08:33;;;;;;;8.48;4.53;;;;;;;;;;5056730;28;20115;-73
2023/04/14 07:11:00;;;;;;;8.02;4.50;;;;;;;;;;5056379;28;20119;-74
2023/04/14 07:13:26;;;;;;;7.78;4.43;;;;;;;;;;5056603;28;20056;-74
2023/04/14 07:15:51;;;;;;;7.72;4.75;;;;;;;;;;5055458;28;20057;-75
2023/04/14 07:18:16;;;;;;;8.10;4.07;;;;;;;;;;5056788;28;20036;-75
2023/04/14 07:20:41;;;;;;;6.57;4.63;;;;;;;;;;5057003;28;20254;-73
2023/04/14 07:23:07;;;;;;;8.90;5.07;;;;;;;;;;5056626;28;20439;-75
2023/04/14 07:25:35;;;;;;;8.35;4.70;;;;;;;;;;5056288;28;20737;-74
2023/04/14 07:28:00;;;;;;;8.77;4.88;;;;;;;;;;5056159;28;20027;-75
2023/04/14 07:30:26;;;;;;;6.85;4.03;;;;;;;;;;5056025;28;20013;-74
2023/04/14 07:32:51;;;;;;;7.90;4.53;;;;;;;;;;5055920;28;20035;-75
2023/04/14 07:35:16;;;;;;;9.27;3.75;;;;;;;;;;5056688;28;20048;-75
2023/04/14 07:37:41;;;;;;;8.23;4.80;;;;;;;;;;5056829;28;20549;-73
2023/04/14 07:40:07;;;;;;;7.68;4.38;;;;;;;;;;5056357;28;20028;-73
2023/04/14 07:42:33;;;;;;;8.18;4.30;;;;;;;;;;5058870;28;20021;-75
2023/04/14 07:44:58;;;;;;;6.88;4.10;;;;;;;;;;5058300;28;20025;-74
2023/04/14 07:47:23;;;;;;;8.70;4.25;;;;;;;;;;5058798;28;20123;-75
2023/04/14 07:49:48;;;;;;;7.95;4.70;;;;;;;;;;5058288;28;20025;-75
2023/04/14 07:52:14;;;;;;;10.82;4.30;;;;;;;;;;5058222;28;20036;-75
2023/04/14 07:54:39;;;;;;;6.82;4.03;;;;;;;;;;5058275;28;20067;-74
2023/04/14 07:57:07;;;;;;;5.45;3.20;;;;;;;;;;5058469;28;20089;-75
2023/04/14 07:59:32;;;;;;;5.35;3.42;;;;;;;;;;5057665;28;20484;-75
2023/04/14 08:01:57;;;;;;;11.52;3.28;;;;;;;;;;5057580;28;20074;-75
2023/04/14 08:04:23;;;;;;;5.30;2.93;;;;;;;;;;5057944;28;20424;-75
2023/04/14 08:06:48;;;;;;;5.00;2.80;;;;;;;;;;5057657;28;20767;-75
2023/04/14 08:09:13;;;;;;;4.27;2.73;;;;;;;;;;5058768;28;20017;-75
2023/04/14 08:11:39;;;;;;;5.90;2.78;;;;;;;;;;5057343;28;20269;-75
2023/04/14 08:14:04;;;;;;;4.97;2.47;;;;;;;;;;5057058;28;20104;-76
2023/04/14 08:16:30;;;;;;;4.28;2.70;;;;;;;;;;5058381;28;20383;-76
2023/04/14 08:18:55;;;;;;;4.75;2.33;;;;;;;;;;5057461;28;20025;-75
2023/04/14 08:21:20;;;;;;;4.00;2.50;;;;;;;;;;5056962;28;20024;-75
2023/04/14 08:23:46;;;;;;;4.22;2.53;;;;;;;;;;5058753;28;20108;-75
2023/04/14 08:26:11;;;;;;;3.83;2.63;;;;;;;;;;5058446;28;20033;-75
2023/04/14 08:28:36;;;;;;;4.50;2.70;;;;;;;;;;5057626;28;20017;-75
2023/04/14 08:31:02;;;;;;;6.60;2.95;;;;;;;;;;5057329;28;20017;-74
2023/04/14 08:33:27;;;;;;;3.47;2.70;;;;;;;;;;5057246;28;20029;-75
2023/04/14 08:35:52;;;;;;;4.00;2.75;;;;;;;;;;5057155;28;20025;-75
2023/04/14 08:38:19;;;;;;;3.85;2.63;;;;;;;;;;5057195;28;20029;-75
2023/04/14 08:40:46;;;;;;;5.88;2.80;;;;;;;;;;5057557;28;20365;-74
2023/04/14 08:43:11;;;;;;;3.83;2.50;;;;;;;;;;5057376;28;20035;-76
2023/04/14 08:45:37;;;;;;;5.07;2.80;;;;;;;;;;5057307;28;20025;-75
2023/04/14 08:48:03;;;;;;;4.70;2.85;;;;;;;;;;5058026;28;20024;-75
2023/04/14 08:50:45;;;;;;;4.22;2.70;;;;;;;;;;5057095;28;20403;-77
2023/04/14 08:53:12;;;;;;;4.78;2.63;;;;;;;;;;5054730;28;20104;-75
2023/04/14 08:55:40;;;;;;;5.78;2.70;;;;;;;;;;5054695;28;20096;-75
2023/04/14 08:58:07;;;;;;;4.68;2.70;;;;;;;;;;5054701;28;20433;-75
2023/04/14 09:00:33;;;;;;;4.40;2.92;;;;;;;;;;5036624;28;20374;-74
2023/04/14 09:02:59;;;;;;;4.18;2.45;;;;;;;;;;5054314;28;20024;-74
2023/04/14 09:05:24;;;;;;;4.03;2.78;;;;;;;;;;5054356;28;20020;-74
2023/04/14 09:07:50;;;;;;;4.80;2.70;;;;;;;;;;5054190;28;20032;-75
2023/04/14 09:10:15;;;;;;;6.60;2.88;;;;;;;;;;5054164;28;20044;-75
2023/04/14 09:12:41;;;;;;;5.40;3.10;;;;;;;;;;5054230;28;20059;-75
2023/04/14 09:15:07;;;;;;;9.52;2.95;;;;;;;;;;5054294;28;20293;-74
2023/04/14 09:17:32;;;;;;;4.35;2.75;;;;;;;;;;5054219;28;20040;-75
2023/04/14 09:19:58;;;;;;;4.90;3.40;;;;;;;;;;5053894;28;20051;-74
2023/04/14 09:22:24;;;;;;;4.78;2.63;;;;;;;;;;5052617;28;20492;-75
2023/04/14 09:24:50;;;;;;;5.38;2.90;;;;;;;;;;5054660;28;20049;-75
2023/04/14 09:27:16;;;;;;;5.10;2.55;;;;;;;;;;5054304;28;20017;-74
2023/04/14 09:29:41;;;;;;;4.18;2.22;;;;;;;;;;5053784;28;20036;-74
2023/04/14 09:32:08;;;;;;;2.67;1.88;;;;;;;;;;5053648;28;20025;-75
2023/04/14 09:34:33;;;;;;;2.92;2.10;;;;;;;;;;5053909;28;20021;-74
2023/04/14 09:37:04;;;;;;;3.15;2.17;;;;;;;;;;5052218;28;20056;-75
2023/04/14 09:39:30;;;;;;;3.30;2.25;;;;;;;;;;5052328;28;20017;-78
2023/04/14 09:41:56;;;;;;;2.60;1.92;;;;;;;;;;5054229;28;20129;-74
2023/04/14 09:44:21;;;;;;;4.05;2.17;;;;;;;;;;5053740;28;20456;-74
2023/04/14 09:47:00;;;;;;;5.40;2.28;;;;;;;;;;5053556;28;20036;-73
2023/04/14 09:49:26;;;;;;;4.85;1.92;;;;;;;;;;5052151;28;20028;-74
2023/04/14 09:51:54;;;;;;;4.40;2.33;;;;;;;;;;5053573;28;20028;-75
2023/04/14 09:54:26;;;;;;;4.45;2.40;;;;;;;;;;5052106;28;20511;-75
2023/04/14 09:56:52;;;;;;;3.90;2.53;;;;;;;;;;5052006;28;20033;-75
2023/04/14 09:59:32;;;;;;;3.88;1.90;;;;;;;;;;5051876;28;20103;-75
2023/04/14 10:02:08;;;;;;;3.90;2.55;;;;;;;;;;5053564;28;20021;-75
2023/04/14 10:04:33;;;;;;;3.92;1.60;;;;;;;;;;5053545;28;20411;-74
2023/04/14 10:06:59;;;;;;;3.95;2.30;;;;;;;;;;5051927;28;20020;-75
2023/04/14 10:09:26;;;;;;;3.20;2.33;;;;;;;;;;5053428;28;20031;-75
2023/04/14 10:12:12;;;;;;;3.78;2.30;;;;;;;;;;5053801;28;20029;-75
2023/04/14 10:14:42;;;;;;;2.88;1.92;;;;;;;;;;5053504;28;20141;-74
2023/04/14 10:17:08;;;;;;;2.72;1.65;;;;;;;;;;5053238;28;20031;-74
2023/04/14 10:19:35;;;;;;;3.00;1.90;;;;;;;;;;5051685;28;20021;-74
2023/04/14 10:22:01;;;;;;;2.90;1.63;;;;;;;;;;5053230;28;20109;-75
2023/04/14 10:24:26;;;;;;;3.42;1.85;;;;;;;;;;5053041;28;20025;-75
2023/04/14 10:26:52;;;;;;;4.57;1.98;;;;;;;;;;5051749;28;20132;-74
2023/04/14 10:29:18;;;;;;;3.22;1.80;;;;;;;;;;5052078;28;20025;-74
2023/04/14 10:31:59;;;;;;;3.15;1.60;;;;;;;;;;5051536;28;20047;-74
2023/04/14 10:34:24;;;;;;;3.60;2.20;;;;;;;;;;5053104;28;20096;-75
2023/04/14 10:36:50;;;;;;;2.67;2.00;;;;;;;;;;5051550;28;20444;-74
2023/04/14 10:39:23;;;;;;;3.00;2.20;;;;;;;;;;5051469;28;20119;-74
2023/04/14 10:41:50;;;;;;;3.75;1.77;;;;;;;;;;5052667;28;20094;-74
2023/04/14 10:44:21;;;;;;;3.30;2.00;;;;;;;;;;5052986;28;20037;-75
2023/04/14 10:46:48;;;;;;;2.35;1.63;;;;;;;;;;5053070;28;20021;-75
2023/04/14 10:49:13;;;;;;;3.38;1.90;;;;;;;;;;5052763;28;20051;-74
2023/04/14 10:51:39;;;;;;;3.50;2.15;;;;;;;;;;5052809;28;20085;-75
2023/04/14 10:54:15;;;;;;;4.22;2.05;;;;;;;;;;5051317;28;20070;-74
2023/04/14 10:56:41;;;;;;;4.50;1.98;;;;;;;;;;5052995;28;20017;-76
2023/04/14 10:59:08;;;;;;;3.55;2.03;;;;;;;;;;5051145;28;20493;-75
2023/04/14 11:01:35;;;;;;;3.63;1.70;;;;;;;;;;5052738;28;20027;-76
2023/04/14 11:04:30;;;;;;;2.28;1.48;;;;;;;;;;5051348;28;20024;-76
2023/04/14 11:06:57;;;;;;;4.65;1.70;;;;;;;;;;5043030;28;20043;-75
2023/04/14 11:09:29;;;;;;;2.85;1.92;;;;;;;;;;5052964;28;20093;-76
2023/04/14 11:11:56;;;;;;;3.75;2.05;;;;;;;;;;5052871;28;20086;-73
2023/04/14 11:14:26;;;;;;;1.88;1.35;;;;;;;;;;5052720;28;20099;-75
2023/04/14 11:16:57;;;;;;;3.00;1.95;;;;;;;;;;5052850;28;20029;-75
2023/04/14 11:19:22;;;;;;;2.95;1.65;;;;;;;;;;5052632;28;20051;-75
2023/04/14 11:21:48;;;;;;;3.67;1.92;;;;;;;;;;5052414;28;20551;-75
2023/04/14 11:24:15;;;;;;;1.80;1.38;;;;;;;;;;5052510;28;20021;-75
2023/04/14 11:26:43;;;;;;;2.88;1.90;;;;;;;;;;5052510;28;20016;-75
2023/04/14 11:29:08;;;;;;;4.03;1.88;;;;;;;;;;5051162;28;20113;-75
2023/04/14 11:31:33;;;;;;;3.10;2.00;;;;;;;;;;5052241;28;20116;-75
2023/04/14 11:34:02;;;;;;;2.70;1.47;;;;;;;;;;5052250;28;20308;-75
2023/04/14 11:36:28;;;;;;;2.13;1.65;;;;;;;;;;5050972;28;20262;-73
2023/04/14 11:38:53;;;;;;;3.63;2.05;;;;;;;;;;5052348;28;20361;-75
2023/04/14 11:41:20;;;;;;;2.25;1.52;;;;;;;;;;5054704;28;20070;-75
2023/04/14 11:43:47;;;;;;;4.60;2.10;;;;;;;;;;5055821;28;20076;-75
2023/04/14 11:46:13;;;;;;;3.35;1.83;;;;;;;;;;5055795;28;20138;-75
2023/04/14 11:48:38;;;;;;;8.40;2.15;;;;;;;;;;5054451;28;20449;-74
2023/04/14 11:51:03;;;;;;;1.43;1.17;;;;;;;;;;5055707;28;20033;-74
2023/04/14 11:53:29;;;;;;;2.20;1.88;;;;;;;;;;5055591;28;20253;-75
2023/04/14 11:55:56;;;;;;;2.22;1.48;;;;;;;;;;5055814;28;20135;-75
2023/04/14 11:58:23;;;;;;;2.45;1.80;;;;;;;;;;5055837;28;20025;-75
2023/04/14 12:00:49;;;;;;;3.95;2.08;;;;;;;;;;5054288;28;20043;-75
2023/04/14 12:03:15;;;;;;;3.40;1.85;;;;;;;;;;5055546;28;20028;-75
2023/04/14 12:05:41;;;;;;;3.60;2.00;;;;;;;;;;5054247;28;20150;-74
2023/04/14 12:08:07;;;;;;;2.95;1.83;;;;;;;;;;5054348;28;20031;-75
2023/04/14 12:10:33;;;;;;;1.65;1.38;;;;;;;;;;5055414;28;20055;-75
2023/04/14 12:13:07;;;;;;;2.65;2.10;;;;;;;;;;5055137;28;20476;-75
2023/04/14 12:15:38;;;;;;;3.90;2.00;;;;;;;;;;5054123;28;20036;-75
2023/04/14 12:18:08;;;;;;;2.70;1.95;;;;;;;;;;5055597;28;20033;-75
2023/04/14 12:20:41;;;;;;;3.17;2.20;;;;;;;;;;5055269;28;20059;-75
2023/04/14 12:23:07;;;;;;;3.15;1.85;;;;;;;;;;5055206;28;20032;-74
2023/04/14 12:25:33;;;;;;;2.25;1.55;;;;;;;;;;5055336;28;20033;-74
2023/04/14 12:28:01;;;;;;;2.10;1.65;;;;;;;;;;5053843;28;20028;-74
2023/04/14 12:30:27;;;;;;;3.03;2.10;;;;;;;;;;5055065;28;20017;-74
2023/04/14 12:32:52;;;;;;;3.28;2.10;;;;;;;;;;5055324;28;20032;-74
2023/04/14 12:35:22;;;;;;;4.32;2.10;;;;;;;;;;5054887;28;20029;-74
2023/04/14 12:37:48;;;;;;;3.42;2.08;;;;;;;;;;5054983;28;20414;-75
2023/04/14 12:40:15;;;;;;;3.00;1.60;;;;;;;;;;5053632;28;20230;-76
2023/04/14 12:42:48;;;;;;;2.60;1.88;;;;;;;;;;5053402;28;20024;-75
2023/04/14 12:45:15;;;;;;;3.15;2.30;;;;;;;;;;5053556;28;20416;-75
2023/04/14 12:47:40;;;;;;;2.83;2.22;;;;;;;;;;5053420;28;20083;-74
2023/04/14 12:50:28;;;;;;;3.35;2.05;;;;;;;;;;5054769;28;20025;-74
2023/04/14 12:52:54;;;;;;;4.68;2.15;;;;;;;;;;5054255;28;20029;-74
2023/04/14 12:55:26;;;;;;;3.53;2.00;;;;;;;;;;5054326;28;20028;-75
2023/04/14 12:57:52;;;;;;;3.45;2.30;;;;;;;;;;5054684;28;20020;-75
2023/04/14 13:00:18;;;;;;;2.95;2.38;;;;;;;;;;5054341;28;20028;-74
2023/04/14 13:02:44;;;;;;;4.13;2.47;;;;;;;;;;5054427;28;20040;-74
2023/04/14 13:05:09;;;;;;;2.78;2.47;;;;;;;;;;5054557;28;20029;-76
2023/04/14 13:07:34;;;;;;;4.47;2.35;;;;;;;;;;5054224;28;20079;-75
2023/04/14 13:10:00;;;;;;;3.20;2.33;;;;;;;;;;5054206;28;20021;-75
2023/04/14 13:12:26;;;;;;;2.83;1.90;;;;;;;;;;5054070;28;20036;-74
2023/04/14 13:14:52;;;;;;;2.42;2.10;;;;;;;;;;5054603;28;20032;-75
2023/04/14 13:17:17;;;;;;;3.92;2.00;;;;;;;;;;5052812;28;20025;-75
2023/04/14 13:19:42;;;;;;;2.85;1.95;;;;;;;;;;5054174;28;20029;-76
2023/04/14 13:22:07;;;;;;;2.72;2.00;;;;;;;;;;5054273;28;20025;-76
2023/04/14 13:24:33;;;;;;;14.07;2.20;;;;;;;;;;5054343;28;20025;-74
2023/04/14 13:26:58;;;;;;;3.00;2.30;;;;;;;;;;5052831;28;20028;-74
2023/04/14 13:29:23;;;;;;;2.97;1.90;;;;;;;;;;5054120;28;20479;-75
2023/04/14 13:31:49;;;;;;;3.83;2.08;;;;;;;;;;5053743;28;20029;-75
2023/04/14 13:34:14;;;;;;;2.85;2.28;;;;;;;;;;5054076;28;20104;-76
2023/04/14 13:36:39;;;;;;;3.93;2.47;;;;;;;;;;5054156;28;20391;-76
2023/04/14 13:39:05;;;;;;;3.20;2.17;;;;;;;;;;5053946;28;20634;-76
2023/04/14 13:41:30;;;;;;;6.90;2.10;;;;;;;;;;5053960;28;20025;-76
2023/04/14 13:43:56;;;;;;;2.50;1.92;;;;;;;;;;5053668;28;20388;-75
2023/04/14 13:46:21;;;;;;;2.42;2.05;;;;;;;;;;5053612;28;20025;-74
2023/04/14 13:48:46;;;;;;;3.58;2.13;;;;;;;;;;5053638;28;20021;-75
2023/04/14 13:51:12;;;;;;;4.22;2.15;;;;;;;;;;5053729;28;20096;-76
2023/04/14 13:53:37;;;;;;;2.30;2.10;;;;;;;;;;5052078;28;20127;-75
2023/04/14 13:56:03;;;;;;;3.20;2.17;;;;;;;;;;5053422;28;20029;-76
2023/04/14 13:58:29;;;;;;;2.47;1.70;;;;;;;;;;5053488;28;20090;-75
2023/04/14 14:00:55;;;;;;;3.03;2.17;;;;;;;;;;5053545;28;20033;-76
2023/04/14 14:03:20;;;;;;;2.83;1.90;;;;;;;;;;5052489;28;20426;-75
2023/04/14 14:05:45;;;;;;;2.35;1.70;;;;;;;;;;5053615;28;20021;-76
2023/04/14 14:08:13;;;;;;;2.57;1.80;;;;;;;;;;5053282;28;20021;-75
2023/04/14 14:10:38;;;;;;;2.78;2.05;;;;;;;;;;5051941;28;20777;-76
2023/04/14 14:13:03;;;;;;;13.37;2.20;;;;;;;;;;5053059;28;20116;-76
2023/04/14 14:15:31;;;;;;;2.63;1.60;;;;;;;;;;5053196;28;20293;-74
2023/04/14 14:17:56;;;;;;;3.25;1.67;;;;;;;;;;5053128;28;20025;-76
2023/04/14 14:20:21;;;;;;;2.50;1.80;;;;;;;;;;5052954;28;20028;-75
2023/04/14 14:22:47;;;;;;;2.55;1.77;;;;;;;;;;5053105;28;20331;-75
2023/04/14 14:25:12;;;;;;;3.97;1.90;;;;;;;;;;5051719;28;20104;-75
2023/04/14 14:27:37;;;;;;;2.78;1.77;;;;;;;;;;5051692;28;20032;-74
2023/04/14 14:30:03;;;;;;;1.67;1.47;;;;;;;;;;5052903;28;20484;-75
2023/04/14 14:32:28;;;;;;;2.28;1.77;;;;;;;;;;5052095;28;20827;-75
2023/04/14 14:34:55;;;;;;;2.38;1.80;;;;;;;;;;5053033;28;20079;-75
2023/04/14 14:37:21;;;;;;;2.92;1.92;;;;;;;;;;5053296;28;20032;-75
2023/04/14 14:39:46;;;;;;;1.73;1.55;;;;;;;;;;5053603;28;20029;-75
2023/04/14 14:42:11;;;;;;;3.05;2.00;;;;;;;;;;5051972;28;20036;-75